createdAt,value
2019-06-19T00:02:06.173Z,19.59
2019-06-19T00:04:34.597Z,19.46
2019-06-19T00:07:03.744Z,19.55
2019-06-19T00:09:33.186Z,19.67
2019-06-19T00:12:03.233Z,19.64
2019-06-19T00:14:33.310Z,19.62
2019-06-19T00:17:02.657Z,19.71
2019-06-19T00:19:33.403Z,19.25
2019-06-19T00:22:04.038Z,19.36
2019-06-19T00:24:32.537Z,19.38
2019-06-19T00:27:00.983Z,19.47
2019-06-19T00:29:40.139Z,19.38
2019-06-19T00:32:00.723Z,19.21
2019-06-19T00:34:30.743Z,19.40
2019-06-19T00:37:01.235Z,19.56
2019-06-19T00:39:31.541Z,19.50
2019-06-19T00:42:01.768Z,19.46
2019-06-19T00:44:30.741Z,19.40
2019-06-19T00:47:00.894Z,19.28
2019-06-19T00:49:31.376Z,19.19
2019-06-19T00:52:00.977Z,19.31
2019-06-19T00:54:31.696Z,19.42
2019-06-19T00:57:02.004Z,19.37
2019-06-19T00:59:31.183Z,19.41
2019-06-19T01:02:01.010Z,19.41
2019-06-19T01:04:31.566Z,19.34
2019-06-19T01:07:01.701Z,19.27
2019-06-19T01:09:31.280Z,19.28
2019-06-19T01:12:01.295Z,19.29
2019-06-19T01:14:31.329Z,19.30
2019-06-19T01:17:00.913Z,19.33
2019-06-19T01:19:31.569Z,19.17
2019-06-19T01:22:01.018Z,19.31
2019-06-19T01:24:31.728Z,19.42
2019-06-19T01:27:01.701Z,19.53
2019-06-19T01:29:31.606Z,19.28
2019-06-19T01:32:01.137Z,19.48
2019-06-19T01:34:31.926Z,19.37
2019-06-19T01:37:01.274Z,19.24
2019-06-19T01:39:31.525Z,19.38
2019-06-19T01:42:01.002Z,19.04
2019-06-19T01:44:30.868Z,18.93
2019-06-19T01:47:01.989Z,18.92
2019-06-19T01:49:30.682Z,18.85
2019-06-19T01:52:01.474Z,18.92
2019-06-19T01:54:32.026Z,18.83
2019-06-19T01:57:00.647Z,18.63
2019-06-19T01:59:31.192Z,18.80
2019-06-19T02:02:01.083Z,18.86
2019-06-19T02:04:31.534Z,18.91
2019-06-19T02:07:00.992Z,18.68
2019-06-19T02:09:30.804Z,18.79
2019-06-19T02:12:01.352Z,18.78
2019-06-19T02:14:31.623Z,18.63
2019-06-19T02:17:01.140Z,18.61
2019-06-19T02:19:37.408Z,18.58
2019-06-19T02:22:01.269Z,18.54
2019-06-19T02:24:31.070Z,18.35
2019-06-19T02:27:01.100Z,18.52
2019-06-19T02:29:31.200Z,18.45
2019-06-19T02:32:02.319Z,18.44
2019-06-19T02:34:32.251Z,18.33
2019-06-19T02:37:02.064Z,18.54
2019-06-19T02:39:31.596Z,18.62
2019-06-19T02:42:00.086Z,18.59
2019-06-19T02:44:28.622Z,18.53
2019-06-19T02:46:57.213Z,18.42
2019-06-19T02:49:25.743Z,18.28
2019-06-19T02:51:54.273Z,18.09
2019-06-19T02:54:22.859Z,18.06
2019-06-19T02:56:51.364Z,17.97
2019-06-19T02:59:19.950Z,17.88
2019-06-19T03:01:48.443Z,17.80
2019-06-19T03:04:16.937Z,17.85
2019-06-19T03:06:45.464Z,17.92
2019-06-19T03:09:13.897Z,18.06
2019-06-19T03:11:42.320Z,17.95
2019-06-19T03:14:10.784Z,17.87
2019-06-19T03:16:39.250Z,17.93
2019-06-19T03:19:07.654Z,17.85
2019-06-19T03:21:36.102Z,17.69
2019-06-19T03:24:04.666Z,17.80
2019-06-19T03:26:33.093Z,17.74
2019-06-19T03:29:01.553Z,17.79
2019-06-19T03:31:35.446Z,17.63
2019-06-19T03:34:00.275Z,17.66
2019-06-19T03:36:28.741Z,17.71
2019-06-19T03:38:57.160Z,17.64
2019-06-19T03:41:25.589Z,17.66
2019-06-19T03:43:54.068Z,17.61
2019-06-19T03:46:22.494Z,17.56
2019-06-19T03:48:50.915Z,17.54
2019-06-19T03:51:19.515Z,17.07
2019-06-19T03:53:48.045Z,17.40
2019-06-19T03:56:16.463Z,17.48
2019-06-19T03:58:44.992Z,17.41
2019-06-19T04:01:13.558Z,17.47
2019-06-19T04:03:42.009Z,17.63
2019-06-19T04:06:10.464Z,17.70
2019-06-19T04:08:38.899Z,17.82
2019-06-19T04:11:07.394Z,17.83
2019-06-19T04:13:35.851Z,17.86
2019-06-19T04:16:04.354Z,17.96
2019-06-19T04:18:32.961Z,17.98
2019-06-19T04:21:01.437Z,17.95
2019-06-19T04:23:29.882Z,17.98
2019-06-19T04:25:58.305Z,17.74
2019-06-19T04:28:34.158Z,17.87
2019-06-19T04:31:02.589Z,18.05
2019-06-19T04:33:31.077Z,18.25
2019-06-19T04:35:59.620Z,18.31
2019-06-19T04:38:31.488Z,18.31
2019-06-19T04:40:58.536Z,18.37
2019-06-19T04:43:27.201Z,18.41
2019-06-19T04:45:55.765Z,18.52
2019-06-19T04:48:24.484Z,18.20
2019-06-19T04:50:52.984Z,18.13
2019-06-19T04:53:21.548Z,18.15
2019-06-19T04:55:50.111Z,18.46
2019-06-19T04:58:18.647Z,18.53
2019-06-19T05:00:47.176Z,18.72
2019-06-19T05:03:15.788Z,18.69
2019-06-19T05:05:44.457Z,18.83
2019-06-19T05:08:27.735Z,18.90
2019-06-19T05:10:56.331Z,19.07
2019-06-19T05:13:24.864Z,19.06
2019-06-19T05:15:53.298Z,19.21
2019-06-19T05:18:21.821Z,19.43
2019-06-19T05:20:50.256Z,19.63
2019-06-19T05:23:21.086Z,20.05
2019-06-19T05:25:49.516Z,20.72
2019-06-19T05:28:18.046Z,21.48
2019-06-19T05:30:47.016Z,21.96
2019-06-19T05:33:15.525Z,22.33
2019-06-19T05:35:43.953Z,22.45
2019-06-19T05:38:12.616Z,22.89
2019-06-19T05:40:41.144Z,22.92
2019-06-19T05:43:09.573Z,22.99
2019-06-19T05:45:38.002Z,23.20
2019-06-19T05:48:06.538Z,23.56
2019-06-19T05:50:35.103Z,23.92
2019-06-19T05:53:03.810Z,24.14
2019-06-19T05:55:32.907Z,23.94
2019-06-19T05:58:01.401Z,23.98
2019-06-19T06:00:30.931Z,23.77
2019-06-19T06:02:59.924Z,23.89
2019-06-19T06:05:28.594Z,24.00
2019-06-19T06:07:57.680Z,24.50
2019-06-19T06:10:26.145Z,24.65
2019-06-19T06:12:54.687Z,24.28
2019-06-19T06:15:23.206Z,24.73
2019-06-19T06:17:51.667Z,24.84
2019-06-19T06:20:33.441Z,25.27
2019-06-19T06:23:01.974Z,24.95
2019-06-19T06:25:30.405Z,25.31
2019-06-19T06:27:58.893Z,25.19
2019-06-19T06:30:27.345Z,25.09
2019-06-19T06:33:08.087Z,25.53
2019-06-19T06:35:25.993Z,25.50
2019-06-19T06:37:54.496Z,25.53
2019-06-19T06:40:22.985Z,25.55
2019-06-19T06:42:51.413Z,25.46
2019-06-19T06:45:21.508Z,25.49
2019-06-19T06:47:49.996Z,25.38
2019-06-19T06:50:18.499Z,25.76
2019-06-19T06:52:46.962Z,25.77
2019-06-19T06:55:18.293Z,25.48
2019-06-19T06:57:46.041Z,26.19
2019-06-19T07:00:17.730Z,25.87
2019-06-19T07:02:46.146Z,25.63
2019-06-19T07:05:14.710Z,25.87
2019-06-19T07:07:43.217Z,25.66
2019-06-19T07:10:11.785Z,25.80
2019-06-19T07:12:40.215Z,25.36
2019-06-19T07:15:08.904Z,25.61
2019-06-19T07:17:37.341Z,25.97
2019-06-19T07:20:07.139Z,26.29
2019-06-19T07:22:35.624Z,26.24
2019-06-19T07:25:05.422Z,26.38
2019-06-19T07:27:33.825Z,26.28
2019-06-19T07:30:02.360Z,26.53
2019-06-19T07:32:30.785Z,26.16
2019-06-19T07:34:59.233Z,26.37
2019-06-19T07:37:27.789Z,25.83
2019-06-19T07:39:56.232Z,26.52
2019-06-19T07:42:24.660Z,26.93
2019-06-19T07:44:53.113Z,27.13
2019-06-19T07:47:21.582Z,27.14
2019-06-19T07:49:50.046Z,27.17
2019-06-19T07:52:18.485Z,27.53
2019-06-19T07:54:46.924Z,27.56
2019-06-19T07:57:15.485Z,27.74
2019-06-19T07:59:44.010Z,27.73
2019-06-19T08:02:12.432Z,27.76
2019-06-19T08:04:40.904Z,28.35
2019-06-19T08:07:09.345Z,28.06
2019-06-19T08:09:37.779Z,28.77
2019-06-19T08:12:06.253Z,28.20
2019-06-19T08:14:34.899Z,28.86
2019-06-19T08:17:03.300Z,28.72
2019-06-19T08:19:32.376Z,28.56
2019-06-19T08:22:01.110Z,29.22
2019-06-19T08:24:29.542Z,29.30
2019-06-19T08:26:58.013Z,28.97
2019-06-19T08:29:26.458Z,29.04
2019-06-19T08:31:54.879Z,29.00
2019-06-19T08:34:23.380Z,29.30
2019-06-19T08:36:51.910Z,29.41
2019-06-19T08:39:20.414Z,29.64
2019-06-19T08:41:48.908Z,30.01
2019-06-19T08:44:17.449Z,29.97
2019-06-19T08:46:45.889Z,30.26
2019-06-19T08:49:14.418Z,30.51
2019-06-19T08:51:43.045Z,30.16
2019-06-19T08:54:11.507Z,30.03
2019-06-19T08:56:39.933Z,29.78
2019-06-19T08:59:08.456Z,30.13
2019-06-19T09:01:36.907Z,30.63
2019-06-19T09:04:05.504Z,30.37
2019-06-19T09:06:33.960Z,30.38
2019-06-19T09:09:02.398Z,30.36
2019-06-19T09:11:30.860Z,30.62
2019-06-19T09:13:59.376Z,30.57
2019-06-19T09:16:27.806Z,31.05
2019-06-19T09:18:56.238Z,30.25
2019-06-19T09:21:25.045Z,30.61
2019-06-19T09:23:53.522Z,30.63
2019-06-19T09:26:21.940Z,30.64
2019-06-19T09:28:50.561Z,30.99
2019-06-19T09:31:19.057Z,30.81
2019-06-19T09:33:47.480Z,31.12
2019-06-19T09:36:15.958Z,31.00
2019-06-19T09:38:44.415Z,30.81
2019-06-19T09:41:12.939Z,30.99
2019-06-19T09:43:41.393Z,30.98
2019-06-19T09:46:09.828Z,31.04
2019-06-19T09:48:42.148Z,31.10
2019-06-19T09:51:08.716Z,31.19
2019-06-19T09:53:37.133Z,31.26
2019-06-19T09:56:05.692Z,30.89
2019-06-19T09:58:34.245Z,31.21
2019-06-19T10:01:02.940Z,31.57
2019-06-19T10:03:34.678Z,31.21
2019-06-19T10:06:01.802Z,31.06
2019-06-19T10:08:30.236Z,30.48
2019-06-19T10:10:58.731Z,31.19
2019-06-19T10:13:27.251Z,31.03
2019-06-19T10:16:01.998Z,31.45
2019-06-19T10:18:25.891Z,31.19
2019-06-19T10:20:54.418Z,31.14
2019-06-19T10:23:22.911Z,31.26
2019-06-19T10:25:51.352Z,30.63
2019-06-19T10:28:19.902Z,30.63
2019-06-19T10:30:48.401Z,31.51
2019-06-19T10:33:16.899Z,31.86
2019-06-19T10:35:45.418Z,31.83
2019-06-19T10:38:14.053Z,32.21
2019-06-19T10:40:42.528Z,30.59
2019-06-19T10:43:10.950Z,30.76
2019-06-19T10:45:39.381Z,30.28
2019-06-19T10:48:07.881Z,30.27
2019-06-19T10:50:36.328Z,30.60
2019-06-19T10:53:04.900Z,30.85
2019-06-19T10:55:33.408Z,31.00
2019-06-19T10:58:01.906Z,31.43
2019-06-19T11:00:30.615Z,30.85
2019-06-19T11:02:59.045Z,30.95
2019-06-19T11:05:39.248Z,31.08
2019-06-19T11:07:57.801Z,30.83
2019-06-19T11:10:26.233Z,31.46
2019-06-19T11:12:54.835Z,31.79
2019-06-19T11:15:23.500Z,31.50
2019-06-19T11:17:52.043Z,31.48
2019-06-19T11:20:20.977Z,31.67
2019-06-19T11:22:49.484Z,31.85
2019-06-19T11:25:17.991Z,32.02
2019-06-19T11:27:46.436Z,32.17
2019-06-19T11:30:15.912Z,32.23
2019-06-19T11:32:44.348Z,32.35
2019-06-19T11:35:13.063Z,32.38
2019-06-19T11:37:41.606Z,32.35
2019-06-19T11:40:11.104Z,32.23
2019-06-19T11:42:39.635Z,32.32
2019-06-19T11:45:08.526Z,32.71
2019-06-19T11:47:36.954Z,32.47
2019-06-19T11:50:06.865Z,32.18
2019-06-19T11:52:35.366Z,32.59
2019-06-19T11:55:05.761Z,32.34
2019-06-19T11:57:34.199Z,32.32
2019-06-19T12:00:05.186Z,32.62
2019-06-19T12:02:33.635Z,32.69
2019-06-19T12:05:02.353Z,32.13
2019-06-19T12:07:30.870Z,31.98
2019-06-19T12:09:59.284Z,32.28
2019-06-19T12:12:27.739Z,32.90
2019-06-19T12:14:56.168Z,32.56
2019-06-19T12:17:24.804Z,33.13
2019-06-19T12:19:53.286Z,33.48
2019-06-19T12:22:21.722Z,33.40
2019-06-19T12:24:50.155Z,33.29
2019-06-19T12:27:18.612Z,32.88
2019-06-19T12:29:47.039Z,33.06
2019-06-19T12:32:15.556Z,32.88
2019-06-19T12:34:44.023Z,32.98
2019-06-19T12:37:12.481Z,32.97
2019-06-19T12:39:40.983Z,33.37
2019-06-19T12:42:09.450Z,33.67
2019-06-19T12:44:37.882Z,32.84
2019-06-19T12:47:06.323Z,32.60
2019-06-19T12:49:34.801Z,32.61
2019-06-19T12:52:03.311Z,32.87
2019-06-19T12:54:31.751Z,32.69
2019-06-19T12:57:00.309Z,32.41
2019-06-19T12:59:28.843Z,32.38
2019-06-19T13:01:57.485Z,32.27
2019-06-19T13:04:26.090Z,32.02
2019-06-19T13:06:56.061Z,32.30
2019-06-19T13:09:24.607Z,32.55
2019-06-19T13:11:53.165Z,32.97
2019-06-19T13:14:21.584Z,33.34
2019-06-19T13:16:50.069Z,33.07
2019-06-19T13:19:18.529Z,33.18
2019-06-19T13:21:46.953Z,32.90
2019-06-19T13:24:15.378Z,32.88
2019-06-19T13:26:43.839Z,32.64
2019-06-19T13:29:12.344Z,32.70
2019-06-19T13:31:40.797Z,32.74
2019-06-19T13:34:09.323Z,32.66
2019-06-19T13:36:37.774Z,32.85
2019-06-19T13:39:07.519Z,32.41
2019-06-19T13:41:35.989Z,32.81
2019-06-19T13:44:04.683Z,32.16
2019-06-19T13:46:33.117Z,32.69
2019-06-19T13:49:01.577Z,32.42
2019-06-19T13:51:30.002Z,32.39
2019-06-19T13:53:58.450Z,32.69
2019-06-19T13:56:27.035Z,33.00
2019-06-19T13:58:55.484Z,32.71
2019-06-19T14:01:23.911Z,32.73
2019-06-19T14:03:52.409Z,33.26
2019-06-19T14:06:20.834Z,32.84
2019-06-19T14:08:49.272Z,32.64
2019-06-19T14:11:17.722Z,32.50
2019-06-19T14:13:46.167Z,32.66
2019-06-19T14:16:14.622Z,33.07
2019-06-19T14:18:43.090Z,32.81
2019-06-19T14:21:11.702Z,32.71
2019-06-19T14:23:40.180Z,32.89
2019-06-19T14:26:08.628Z,32.71
2019-06-19T14:28:37.102Z,32.97
2019-06-19T14:31:05.609Z,33.22
2019-06-19T14:33:34.076Z,32.56
2019-06-19T14:36:02.524Z,32.63
2019-06-19T14:38:33.629Z,32.43
2019-06-19T14:41:01.128Z,32.84
2019-06-19T14:43:29.564Z,32.67
2019-06-19T14:45:57.988Z,32.75
2019-06-19T14:48:26.520Z,32.61
2019-06-19T14:50:54.958Z,32.77
2019-06-19T14:53:23.466Z,32.98
2019-06-19T14:55:52.025Z,32.82
2019-06-19T14:58:20.450Z,32.73
2019-06-19T15:00:59.408Z,32.84
2019-06-19T15:03:27.954Z,32.47
2019-06-19T15:05:56.446Z,32.82
2019-06-19T15:08:24.987Z,32.77
2019-06-19T15:10:53.472Z,32.89
2019-06-19T15:13:21.898Z,32.48
2019-06-19T15:15:50.471Z,32.49
2019-06-19T15:18:19.182Z,32.51
2019-06-19T15:20:47.605Z,32.45
2019-06-19T15:23:16.236Z,32.36
2019-06-19T15:25:44.739Z,32.86
2019-06-19T15:28:13.944Z,32.73
2019-06-19T15:30:42.392Z,32.64
2019-06-19T15:33:10.813Z,32.86
2019-06-19T15:35:39.318Z,33.02
2019-06-19T15:38:12.110Z,33.12
2019-06-19T15:40:38.017Z,32.83
2019-06-19T15:43:06.424Z,32.55
2019-06-19T15:45:34.958Z,32.68
2019-06-19T15:48:03.395Z,32.63
2019-06-19T15:50:31.828Z,32.73
2019-06-19T15:53:00.277Z,32.76
2019-06-19T15:55:28.703Z,32.66
2019-06-19T15:57:57.210Z,32.63
2019-06-19T16:00:26.850Z,32.68
2019-06-19T16:02:55.319Z,32.88
2019-06-19T16:05:24.184Z,32.69
2019-06-19T16:07:52.723Z,32.27
2019-06-19T16:10:21.405Z,32.08
2019-06-19T16:12:49.838Z,32.06
2019-06-19T16:15:18.710Z,32.17
2019-06-19T16:17:47.291Z,32.00
2019-06-19T16:20:16.394Z,31.78
2019-06-19T16:22:44.955Z,32.24
2019-06-19T16:25:13.782Z,32.16
2019-06-19T16:27:42.349Z,32.11
2019-06-19T16:30:13.446Z,32.04
2019-06-19T16:32:41.882Z,31.97
2019-06-19T16:35:10.862Z,31.88
2019-06-19T16:37:39.389Z,31.84
2019-06-19T16:40:12.661Z,31.88
2019-06-19T16:42:41.189Z,32.00
2019-06-19T16:45:11.589Z,31.96
2019-06-19T16:47:40.105Z,31.71
2019-06-19T16:50:10.901Z,31.62
2019-06-19T16:52:39.488Z,31.31
2019-06-19T16:55:09.894Z,31.27
2019-06-19T16:57:38.385Z,31.19
2019-06-19T17:00:10.140Z,31.27
2019-06-19T17:02:38.671Z,31.36
2019-06-19T17:05:08.368Z,31.41
2019-06-19T17:07:36.930Z,31.36
2019-06-19T17:10:09.169Z,31.14
2019-06-19T17:12:37.602Z,31.20
2019-06-19T17:15:07.802Z,30.86
2019-06-19T17:17:36.296Z,31.11
2019-06-19T17:20:07.441Z,31.07
2019-06-19T17:22:35.942Z,31.00
2019-06-19T17:25:06.253Z,30.90
2019-06-19T17:27:34.754Z,30.85
2019-06-19T17:30:03.463Z,31.04
2019-06-19T17:32:31.907Z,30.89
2019-06-19T17:35:00.331Z,30.82
2019-06-19T17:37:28.793Z,30.66
2019-06-19T17:39:57.222Z,30.84
2019-06-19T17:42:25.661Z,30.85
2019-06-19T17:44:54.111Z,30.80
2019-06-19T17:47:22.542Z,30.71
2019-06-19T17:49:50.998Z,30.57
2019-06-19T17:52:19.477Z,30.84
2019-06-19T17:54:47.914Z,30.78
2019-06-19T17:57:16.458Z,30.53
2019-06-19T17:59:45.022Z,30.45
2019-06-19T18:02:13.443Z,30.51
2019-06-19T18:04:41.879Z,30.38
2019-06-19T18:07:10.351Z,30.20
2019-06-19T18:09:39.401Z,30.12
2019-06-19T18:12:08.148Z,30.08
2019-06-19T18:14:36.784Z,30.18
2019-06-19T18:17:05.210Z,30.09
2019-06-19T18:19:33.643Z,30.01
2019-06-19T18:22:02.107Z,29.86
2019-06-19T18:24:30.535Z,29.73
2019-06-19T18:26:58.990Z,29.64
2019-06-19T18:29:27.650Z,29.57
2019-06-19T18:31:56.095Z,29.33
2019-06-19T18:34:24.542Z,29.56
2019-06-19T18:36:54.088Z,29.46
2019-06-19T18:39:22.516Z,29.53
2019-06-19T18:41:51.018Z,29.13
2019-06-19T18:44:19.490Z,29.06
2019-06-19T18:46:47.913Z,28.99
2019-06-19T18:49:16.361Z,29.21
2019-06-19T18:51:44.845Z,28.74
2019-06-19T18:54:13.259Z,28.66
2019-06-19T18:56:41.706Z,28.67
2019-06-19T18:59:10.220Z,28.55
2019-06-19T19:01:38.645Z,28.60
2019-06-19T19:04:07.208Z,28.38
2019-06-19T19:06:35.848Z,28.39
2019-06-19T19:09:06.328Z,28.22
2019-06-19T19:11:34.753Z,28.15
2019-06-19T19:14:03.445Z,28.16
2019-06-19T19:16:31.954Z,28.06
2019-06-19T19:19:00.533Z,28.08
2019-06-19T19:21:29.379Z,27.96
2019-06-19T19:23:57.892Z,27.94
2019-06-19T19:26:26.319Z,28.08
2019-06-19T19:28:54.981Z,27.78
2019-06-19T19:31:23.403Z,27.94
2019-06-19T19:33:51.830Z,27.70
2019-06-19T19:36:25.781Z,27.84
2019-06-19T19:38:50.506Z,27.58
2019-06-19T19:41:32.694Z,27.39
2019-06-19T19:43:49.373Z,27.31
2019-06-19T19:46:17.872Z,27.26
2019-06-19T19:48:47.468Z,27.14
2019-06-19T19:51:15.995Z,26.99
2019-06-19T19:53:44.517Z,26.90
2019-06-19T19:56:13.093Z,26.80
2019-06-19T19:58:41.655Z,26.74
2019-06-19T20:01:10.225Z,26.62
2019-06-19T20:03:38.731Z,26.69
2019-06-19T20:06:07.227Z,26.53
2019-06-19T20:08:35.755Z,26.34
2019-06-19T20:11:04.334Z,26.14
2019-06-19T20:13:33.027Z,26.12
2019-06-19T20:16:01.666Z,25.68
2019-06-19T20:18:30.062Z,25.46
2019-06-19T20:20:58.542Z,25.44
2019-06-19T20:23:27.008Z,25.22
2019-06-19T20:25:55.535Z,25.19
2019-06-19T20:28:23.994Z,25.02
2019-06-19T20:30:52.496Z,24.64
2019-06-19T20:33:20.969Z,25.16
2019-06-19T20:35:49.498Z,24.62
2019-06-19T20:38:17.992Z,24.41
2019-06-19T20:41:02.091Z,24.24
2019-06-19T20:43:16.654Z,24.49
2019-06-19T20:45:45.169Z,24.59
2019-06-19T20:48:13.684Z,24.55
2019-06-19T20:50:42.422Z,24.63
2019-06-19T20:53:10.898Z,24.59
2019-06-19T20:55:39.344Z,24.60
2019-06-19T20:58:07.860Z,24.28
2019-06-19T21:00:36.326Z,24.05
2019-06-19T21:03:05.027Z,24.10
2019-06-19T21:05:33.499Z,24.30
2019-06-19T21:08:01.983Z,24.05
2019-06-19T21:10:30.603Z,24.19
2019-06-19T21:12:59.112Z,23.83
2019-06-19T21:15:27.606Z,23.89
2019-06-19T21:17:56.080Z,24.22
2019-06-19T21:20:24.787Z,24.24
2019-06-19T21:22:53.518Z,24.22
2019-06-19T21:25:22.242Z,24.16
2019-06-19T21:27:50.669Z,24.11
2019-06-19T21:30:19.749Z,23.94
2019-06-19T21:32:48.326Z,23.89
2019-06-19T21:35:17.898Z,23.84
2019-06-19T21:37:46.340Z,23.70
2019-06-19T21:40:15.032Z,23.51
2019-06-19T21:42:43.499Z,23.08
2019-06-19T21:45:12.190Z,23.04
2019-06-19T21:47:40.717Z,23.19
2019-06-19T21:50:09.794Z,22.99
2019-06-19T21:52:39.166Z,22.94
2019-06-19T21:55:08.376Z,23.23
2019-06-19T21:57:36.800Z,23.20
2019-06-19T22:00:11.271Z,23.38
2019-06-19T22:02:39.727Z,23.29
2019-06-19T22:05:08.515Z,23.45
2019-06-19T22:07:36.940Z,23.38
2019-06-19T22:10:06.922Z,23.47
2019-06-19T22:12:35.412Z,23.39
2019-06-19T22:15:05.291Z,23.54
2019-06-19T22:17:33.798Z,23.43
2019-06-19T22:20:02.297Z,23.23
2019-06-19T22:22:30.744Z,23.66
2019-06-19T22:24:59.296Z,23.39
2019-06-19T22:27:27.705Z,23.60
2019-06-19T22:29:56.242Z,23.43
2019-06-19T22:32:24.708Z,23.53
2019-06-19T22:34:53.303Z,23.60
2019-06-19T22:37:21.727Z,23.53
2019-06-19T22:39:50.184Z,23.49
2019-06-19T22:42:18.604Z,23.54
2019-06-19T22:44:47.033Z,23.29
2019-06-19T22:47:15.560Z,23.44
2019-06-19T22:49:44.005Z,23.32
2019-06-19T22:52:12.481Z,23.26
2019-06-19T22:54:40.948Z,23.22
2019-06-19T22:57:09.558Z,23.20
2019-06-19T22:59:38.104Z,23.11
2019-06-19T23:02:14.055Z,23.03
2019-06-19T23:04:42.525Z,22.96
2019-06-19T23:07:11.022Z,22.88
2019-06-19T23:09:39.639Z,22.93
2019-06-19T23:12:08.059Z,23.09
2019-06-19T23:14:36.551Z,23.01
2019-06-19T23:17:05.014Z,23.04
2019-06-19T23:19:33.517Z,23.15
2019-06-19T23:22:01.947Z,23.10
2019-06-19T23:24:30.524Z,23.09
2019-06-19T23:26:58.949Z,23.11
2019-06-19T23:29:27.390Z,23.14
2019-06-19T23:31:56.079Z,23.34
2019-06-19T23:34:24.495Z,23.18
2019-06-19T23:36:54.429Z,23.04
2019-06-19T23:39:22.953Z,23.04
2019-06-19T23:41:51.472Z,22.84
2019-06-19T23:44:19.896Z,22.82
2019-06-19T23:46:48.348Z,22.72
2019-06-19T23:49:16.782Z,22.44
2019-06-19T23:51:45.206Z,22.45
2019-06-19T23:54:13.664Z,22.25
2019-06-19T23:56:42.096Z,22.18
2019-06-19T23:59:10.573Z,22.28
